createdAt,value
2023-05-22T00:01:56.695Z,9.88
2023-05-22T00:04:23.764Z,10.75
2023-05-22T00:06:50.830Z,11.13
2023-05-22T00:09:17.822Z,9.95
2023-05-22T00:11:44.955Z,10.73
2023-05-22T00:14:13.544Z,10.60
2023-05-22T00:16:41.256Z,11.00
2023-05-22T00:19:13.679Z,11.65
2023-05-22T00:21:41.042Z,12.27
2023-05-22T00:24:08.352Z,11.85
2023-05-22T00:26:35.602Z,12.52
2023-05-22T00:29:03.522Z,12.73
2023-05-22T00:31:30.545Z,11.13
2023-05-22T00:33:58.078Z,12.10
2023-05-22T00:36:25.119Z,11.77
2023-05-22T00:38:51.993Z,12.38
2023-05-22T00:41:19.382Z,12.23
2023-05-22T00:43:47.614Z,11.80
2023-05-22T00:46:15.207Z,11.45
2023-05-22T00:48:42.204Z,12.70
2023-05-22T00:51:09.356Z,12.05
2023-05-22T00:53:37.124Z,11.27
2023-05-22T00:56:05.056Z,11.50
2023-05-22T00:58:31.974Z,10.98
2023-05-22T01:00:59.509Z,11.80
2023-05-22T01:03:27.454Z,12.95
2023-05-22T01:05:55.925Z,12.10
2023-05-22T01:08:22.911Z,12.65
2023-05-22T01:11:04.329Z,12.15
2023-05-22T01:14:01.680Z,12.35
2023-05-22T01:16:50.811Z,13.13
2023-05-22T01:19:31.218Z,12.60
2023-05-22T01:22:21.693Z,12.23
2023-05-22T01:25:26.560Z,14.60
2023-05-22T01:28:08.851Z,12.20
2023-05-22T01:30:46.027Z,12.10
2023-05-22T01:33:17.225Z,12.88
2023-05-22T01:35:50.029Z,13.95
2023-05-22T01:38:17.297Z,12.90
2023-05-22T01:40:45.754Z,12.88
2023-05-22T01:43:14.729Z,15.07
2023-05-22T01:45:41.855Z,15.93
2023-05-22T01:48:09.035Z,16.42
2023-05-22T01:50:35.980Z,16.23
2023-05-22T01:53:16.848Z,15.35
2023-05-22T01:55:50.482Z,15.50
2023-05-22T01:58:23.627Z,17.42
2023-05-22T02:00:53.880Z,16.50
2023-05-22T02:03:25.630Z,16.40
2023-05-22T02:05:55.547Z,15.65
2023-05-22T02:08:23.038Z,15.90
2023-05-22T02:10:51.998Z,15.55
2023-05-22T02:13:21.911Z,17.25
2023-05-22T02:15:49.352Z,17.90
2023-05-22T02:18:16.418Z,16.17
2023-05-22T02:20:46.381Z,15.93
2023-05-22T02:23:13.786Z,16.23
2023-05-22T02:25:40.799Z,17.02
2023-05-22T02:28:07.698Z,18.33
2023-05-22T02:30:34.667Z,16.95
2023-05-22T02:33:05.641Z,16.45
2023-05-22T02:35:32.831Z,16.83
2023-05-22T02:37:59.719Z,17.65
2023-05-22T02:40:26.865Z,16.27
2023-05-22T02:42:53.744Z,16.85
2023-05-22T02:45:21.324Z,14.88
2023-05-22T02:47:48.327Z,13.50
2023-05-22T02:50:17.279Z,14.13
2023-05-22T02:52:45.280Z,13.88
2023-05-22T02:55:12.302Z,14.60
2023-05-22T02:57:39.259Z,15.57
2023-05-22T03:00:11.653Z,14.75
2023-05-22T03:02:39.129Z,16.00
2023-05-22T03:05:07.166Z,16.08
2023-05-22T03:07:34.830Z,15.38
2023-05-22T03:10:01.773Z,16.33
2023-05-22T03:12:28.770Z,14.80
2023-05-22T03:14:55.723Z,16.65
2023-05-22T03:17:22.928Z,16.60
2023-05-22T03:19:49.873Z,16.98
2023-05-22T03:22:18.465Z,15.95
2023-05-22T03:24:45.797Z,16.38
2023-05-22T03:27:17.135Z,17.40
2023-05-22T03:29:46.636Z,17.20
2023-05-22T03:32:13.643Z,16.60
2023-05-22T03:34:41.115Z,16.33
2023-05-22T03:37:10.566Z,18.58
2023-05-22T03:39:39.485Z,18.23
2023-05-22T03:42:17.469Z,19.10
2023-05-22T03:44:45.458Z,19.90
2023-05-22T03:47:12.347Z,20.60
2023-05-22T03:49:39.368Z,21.05
2023-05-22T03:52:06.413Z,21.30
2023-05-22T03:54:33.385Z,21.27
2023-05-22T03:57:00.749Z,21.58
2023-05-22T03:59:27.861Z,20.40
2023-05-22T04:01:58.019Z,22.80
2023-05-22T04:04:26.942Z,23.80
2023-05-22T04:06:54.003Z,22.08
2023-05-22T04:09:20.931Z,22.83
2023-05-22T04:11:48.744Z,22.92
2023-05-22T04:14:16.351Z,24.02
2023-05-22T04:16:43.188Z,23.02
2023-05-22T04:19:12.492Z,21.48
2023-05-22T04:21:39.677Z,23.60
2023-05-22T04:24:09.499Z,22.27
2023-05-22T04:26:37.300Z,23.58
2023-05-22T04:29:04.708Z,26.05
2023-05-22T04:31:32.530Z,24.90
2023-05-22T04:34:00.296Z,27.65
2023-05-22T04:36:27.965Z,26.02
2023-05-22T04:38:55.368Z,25.60
2023-05-22T04:41:26.465Z,24.08
2023-05-22T04:43:54.541Z,23.98
2023-05-22T04:46:21.686Z,26.20
2023-05-22T04:48:48.749Z,24.23
2023-05-22T04:51:16.180Z,24.20
2023-05-22T04:53:43.331Z,23.65
2023-05-22T04:56:11.809Z,24.13
2023-05-22T04:58:40.313Z,22.38
2023-05-22T05:01:07.399Z,22.85
2023-05-22T05:03:35.116Z,23.63
2023-05-22T05:06:02.109Z,25.25
2023-05-22T05:08:29.172Z,23.45
2023-05-22T05:10:56.322Z,22.55
2023-05-22T05:13:23.396Z,22.15
2023-05-22T05:15:50.661Z,21.60
2023-05-22T05:18:19.570Z,22.23
2023-05-22T05:20:46.603Z,21.52
2023-05-22T05:23:13.756Z,18.55
2023-05-22T05:25:40.789Z,18.02
2023-05-22T05:28:11.371Z,20.35
2023-05-22T05:30:40.670Z,18.90
2023-05-22T05:33:29.413Z,17.98
2023-05-22T05:36:06.679Z,17.02
2023-05-22T05:38:34.975Z,17.23
2023-05-22T05:41:02.405Z,16.27
2023-05-22T05:43:29.674Z,15.93
2023-05-22T05:46:02.568Z,15.48
2023-05-22T05:48:29.674Z,15.30
2023-05-22T05:50:57.599Z,15.85
2023-05-22T05:53:28.644Z,14.88
2023-05-22T05:55:58.656Z,15.35
2023-05-22T05:58:27.529Z,14.85
2023-05-22T06:01:20.216Z,13.95
2023-05-22T06:03:47.500Z,12.75
2023-05-22T06:06:20.912Z,14.43
2023-05-22T06:09:06.886Z,14.85
2023-05-22T06:11:46.821Z,15.05
2023-05-22T06:14:14.014Z,13.60
2023-05-22T06:16:41.612Z,13.73
2023-05-22T06:19:08.896Z,14.10
2023-05-22T06:21:36.602Z,14.35
2023-05-22T06:24:04.043Z,12.50
2023-05-22T06:26:31.274Z,13.82
2023-05-22T06:28:58.311Z,14.65
2023-05-22T06:31:26.046Z,13.73
2023-05-22T06:33:56.483Z,11.73
2023-05-22T06:36:24.961Z,11.88
2023-05-22T06:38:54.619Z,13.43
2023-05-22T06:41:47.954Z,11.63
2023-05-22T06:44:15.419Z,10.80
2023-05-22T06:46:42.390Z,10.80
2023-05-22T06:49:14.162Z,11.15
2023-05-22T06:51:46.589Z,10.45
2023-05-22T06:54:15.927Z,11.68
2023-05-22T06:56:46.062Z,10.20
2023-05-22T06:59:17.346Z,11.77
2023-05-22T07:02:13.363Z,11.60
2023-05-22T07:05:09.326Z,10.98
2023-05-22T07:07:49.760Z,10.23
2023-05-22T07:10:17.312Z,11.82
2023-05-22T07:12:44.276Z,10.77
2023-05-22T07:15:13.472Z,11.10
2023-05-22T07:17:46.539Z,10.27
2023-05-22T07:20:15.815Z,10.60
2023-05-22T07:22:47.916Z,8.40
2023-05-22T07:25:14.953Z,10.18
2023-05-22T07:27:42.303Z,9.88
2023-05-22T07:30:09.969Z,9.23
2023-05-22T07:32:38.028Z,9.35
2023-05-22T07:35:05.752Z,8.43
2023-05-22T07:37:33.932Z,8.68
2023-05-22T07:40:00.967Z,8.55
2023-05-22T07:42:29.221Z,9.32
2023-05-22T07:44:56.186Z,8.32
2023-05-22T07:47:23.700Z,7.43
2023-05-22T07:49:51.491Z,7.88
2023-05-22T07:52:19.818Z,8.07
2023-05-22T07:54:46.919Z,7.70
2023-05-22T07:57:16.564Z,7.45
2023-05-22T07:59:44.267Z,7.22
2023-05-22T08:02:11.323Z,7.20
2023-05-22T08:04:38.447Z,7.43
2023-05-22T08:07:05.814Z,7.50
2023-05-22T08:09:32.828Z,8.38
2023-05-22T08:11:59.789Z,8.35
2023-05-22T08:14:26.751Z,9.35
2023-05-22T08:16:53.753Z,8.05
2023-05-22T08:19:20.799Z,8.85
2023-05-22T08:21:47.960Z,8.20
2023-05-22T08:24:16.203Z,8.90
2023-05-22T08:26:43.679Z,8.70
2023-05-22T08:29:11.604Z,8.52
2023-05-22T08:31:38.484Z,9.02
2023-05-22T08:34:06.444Z,10.50
2023-05-22T08:36:36.078Z,10.48
2023-05-22T08:39:03.660Z,10.45
2023-05-22T08:41:30.655Z,10.70
2023-05-22T08:43:57.709Z,10.32
2023-05-22T08:46:29.193Z,9.70
2023-05-22T08:48:59.613Z,9.93
2023-05-22T08:51:33.024Z,8.77
2023-05-22T08:54:03.931Z,9.00
2023-05-22T08:56:32.140Z,8.02
2023-05-22T08:59:01.445Z,8.32
2023-05-22T09:01:29.878Z,8.13
2023-05-22T09:04:03.496Z,8.30
2023-05-22T09:06:30.668Z,8.60
2023-05-22T09:09:01.540Z,8.35
2023-05-22T09:11:28.549Z,7.80
2023-05-22T09:14:08.456Z,7.63
2023-05-22T09:16:48.204Z,7.82
2023-05-22T09:19:15.989Z,6.90
2023-05-22T09:21:44.482Z,8.05
2023-05-22T09:24:11.853Z,7.57
2023-05-22T09:26:39.508Z,8.73
2023-05-22T09:29:10.164Z,7.75
2023-05-22T09:31:44.814Z,7.80
2023-05-22T09:34:14.349Z,8.20
2023-05-22T09:36:42.575Z,7.30
2023-05-22T09:39:09.737Z,8.85
2023-05-22T09:41:38.827Z,7.85
2023-05-22T09:44:16.652Z,8.15
2023-05-22T09:46:47.455Z,7.75
2023-05-22T09:49:16.750Z,8.68
2023-05-22T09:51:48.030Z,8.93
2023-05-22T09:54:16.420Z,8.20
2023-05-22T09:56:44.721Z,7.95
2023-05-22T09:59:13.976Z,7.65
2023-05-22T10:01:42.540Z,6.75
2023-05-22T10:04:15.975Z,7.38
2023-05-22T10:06:47.293Z,7.68
2023-05-22T10:09:19.307Z,7.20
2023-05-22T10:11:47.518Z,7.32
2023-05-22T10:14:15.840Z,7.88
2023-05-22T10:16:45.087Z,7.53
2023-05-22T10:19:13.025Z,8.88
2023-05-22T10:21:42.099Z,8.30
2023-05-22T10:24:10.052Z,6.65
2023-05-22T10:26:38.658Z,8.00
2023-05-22T10:29:12.181Z,7.07
2023-05-22T10:31:54.605Z,7.82
2023-05-22T10:34:49.673Z,7.47
2023-05-22T10:37:25.675Z,7.80
2023-05-22T10:40:05.585Z,8.07
2023-05-22T10:42:32.900Z,6.95
2023-05-22T10:45:04.368Z,7.93
2023-05-22T10:47:34.020Z,7.95
2023-05-22T10:50:09.204Z,7.60
2023-05-22T10:52:36.933Z,7.15
2023-05-22T10:55:11.170Z,8.00
2023-05-22T10:57:40.027Z,7.38
2023-05-22T11:00:19.213Z,7.93
2023-05-22T11:02:50.210Z,6.80
2023-05-22T11:05:22.517Z,8.77
2023-05-22T11:07:49.505Z,7.80
2023-05-22T11:10:27.010Z,8.60
2023-05-22T11:13:11.150Z,7.90
2023-05-22T11:15:45.376Z,8.77
2023-05-22T11:18:14.317Z,8.27
2023-05-22T11:20:41.749Z,7.65
2023-05-22T11:23:10.836Z,7.35
2023-05-22T11:25:39.997Z,8.23
2023-05-22T11:28:07.812Z,8.45
2023-05-22T11:30:35.389Z,8.50
2023-05-22T11:33:02.743Z,7.80
2023-05-22T11:35:29.896Z,8.60
2023-05-22T11:37:57.107Z,7.90
2023-05-22T11:40:25.860Z,9.20
2023-05-22T11:42:54.034Z,8.68
2023-05-22T11:45:21.763Z,9.20
2023-05-22T11:47:49.689Z,9.15
2023-05-22T11:50:25.912Z,8.90
2023-05-22T11:53:02.877Z,7.90
2023-05-22T11:55:29.756Z,8.27
2023-05-22T11:57:56.806Z,8.10
2023-05-22T12:00:23.783Z,7.50
2023-05-22T12:02:51.003Z,8.52
2023-05-22T12:05:21.321Z,8.55
2023-05-22T12:07:48.271Z,9.10
2023-05-22T12:10:15.625Z,10.20
2023-05-22T12:12:43.751Z,10.70
2023-05-22T12:15:11.012Z,10.23
2023-05-22T12:17:38.524Z,10.02
2023-05-22T12:20:07.119Z,10.77
2023-05-22T12:22:34.039Z,10.93
2023-05-22T12:25:00.967Z,10.68
2023-05-22T12:27:34.487Z,10.52
2023-05-22T12:30:10.436Z,11.68
2023-05-22T12:32:37.459Z,10.52
2023-05-22T12:35:04.708Z,11.35
2023-05-22T12:37:33.768Z,11.27
2023-05-22T12:40:03.357Z,11.35
2023-05-22T12:42:30.357Z,11.07
2023-05-22T12:44:58.190Z,12.18
2023-05-22T12:47:26.154Z,11.93
2023-05-22T12:49:53.353Z,12.10
2023-05-22T12:52:20.330Z,12.15
2023-05-22T12:54:47.380Z,11.55
2023-05-22T12:57:14.412Z,12.43
2023-05-22T12:59:41.327Z,11.73
2023-05-22T13:02:08.423Z,13.55
2023-05-22T13:04:35.527Z,13.98
2023-05-22T13:07:02.705Z,13.45
2023-05-22T13:09:29.635Z,13.45
2023-05-22T13:11:56.935Z,14.15
2023-05-22T13:14:23.813Z,13.30
2023-05-22T13:16:50.806Z,14.68
2023-05-22T13:19:17.830Z,14.60
2023-05-22T13:21:44.837Z,16.10
2023-05-22T13:24:11.756Z,14.48
2023-05-22T13:26:38.696Z,13.93
2023-05-22T13:29:05.684Z,14.20
2023-05-22T13:31:37.992Z,14.52
2023-05-22T13:34:05.461Z,14.73
2023-05-22T13:36:33.032Z,13.02
2023-05-22T13:39:00.041Z,14.57
2023-05-22T13:41:27.006Z,13.90
2023-05-22T13:43:54.047Z,13.32
2023-05-22T13:46:22.370Z,14.63
2023-05-22T13:48:49.826Z,13.70
2023-05-22T13:51:17.083Z,15.10
2023-05-22T13:53:44.121Z,14.10
2023-05-22T13:56:10.988Z,14.40
2023-05-22T13:58:37.968Z,13.38
2023-05-22T14:01:05.021Z,13.70
2023-05-22T14:03:32.118Z,11.98
2023-05-22T14:05:59.074Z,12.15
2023-05-22T14:08:26.274Z,12.85
2023-05-22T14:10:53.325Z,13.07
2023-05-22T14:13:20.369Z,12.45
2023-05-22T14:15:47.380Z,13.10
2023-05-22T14:18:16.418Z,11.98
2023-05-22T14:20:44.031Z,11.98
2023-05-22T14:23:12.929Z,13.02
2023-05-22T14:25:42.934Z,11.30
2023-05-22T14:28:13.145Z,10.98
2023-05-22T14:30:40.588Z,11.18
2023-05-22T14:33:07.750Z,12.23
2023-05-22T14:35:34.764Z,11.73
2023-05-22T14:38:01.964Z,12.15
2023-05-22T14:40:28.936Z,11.98
2023-05-22T14:42:55.892Z,10.07
2023-05-22T14:45:22.851Z,11.30
2023-05-22T14:47:49.991Z,11.75
2023-05-22T14:50:19.650Z,11.52
2023-05-22T14:52:47.278Z,11.00
2023-05-22T14:55:14.407Z,10.38
2023-05-22T14:57:41.416Z,10.60
2023-05-22T15:00:09.918Z,11.52
2023-05-22T15:02:37.592Z,10.20
2023-05-22T15:05:05.564Z,12.65
2023-05-22T15:10:02.612Z,9.73
2023-05-22T15:12:29.666Z,9.60
2023-05-22T15:14:56.582Z,9.77
2023-05-22T15:17:23.439Z,10.20
2023-05-22T15:19:50.426Z,10.95
2023-05-22T15:22:19.840Z,9.98
2023-05-22T15:24:48.264Z,9.48
2023-05-22T15:27:17.326Z,10.30
2023-05-22T15:29:44.262Z,8.70
2023-05-22T15:32:11.196Z,10.50
2023-05-22T15:34:38.200Z,9.77
2023-05-22T15:37:05.160Z,9.25
2023-05-22T15:39:32.117Z,9.52
2023-05-22T15:42:06.485Z,9.95
2023-05-22T15:44:34.053Z,8.90
2023-05-22T15:47:00.944Z,8.73
2023-05-22T15:49:30.958Z,8.40
2023-05-22T15:51:58.726Z,9.88
2023-05-22T15:54:25.962Z,8.45
2023-05-22T15:56:53.158Z,11.65
2023-05-22T15:59:20.409Z,12.77
2023-05-22T16:01:47.681Z,8.77
2023-05-22T16:04:14.594Z,9.35
2023-05-22T16:06:41.773Z,8.77
2023-05-22T16:09:09.813Z,7.78
2023-05-22T16:11:37.913Z,7.88
2023-05-22T16:14:05.005Z,7.75
2023-05-22T16:16:32.095Z,8.68
2023-05-22T16:18:59.052Z,8.43
2023-05-22T16:21:26.050Z,7.55
2023-05-22T16:23:53.042Z,8.63
2023-05-22T16:26:20.032Z,8.45
2023-05-22T16:28:46.931Z,8.38
2023-05-22T16:31:19.108Z,8.52
2023-05-22T16:33:46.460Z,8.85
2023-05-22T16:36:13.480Z,8.80
2023-05-22T16:38:40.679Z,9.35
2023-05-22T16:41:07.568Z,9.38
2023-05-22T16:43:34.578Z,8.85
2023-05-22T16:46:01.480Z,9.45
2023-05-22T16:48:28.521Z,10.25
2023-05-22T16:50:55.464Z,9.90
2023-05-22T16:53:22.398Z,9.95
2023-05-22T16:55:49.252Z,9.43
2023-05-22T16:58:16.264Z,9.65
2023-05-22T17:00:43.611Z,10.45
2023-05-22T17:03:12.122Z,10.10
2023-05-22T17:05:39.691Z,10.57
2023-05-22T17:08:06.945Z,10.07
2023-05-22T17:10:33.807Z,9.05
2023-05-22T17:13:00.812Z,10.13
2023-05-22T17:15:27.751Z,10.30
2023-05-22T17:17:54.906Z,10.60
2023-05-22T17:20:24.910Z,9.32
2023-05-22T17:22:52.492Z,9.43
2023-05-22T17:25:19.491Z,10.13
2023-05-22T17:27:46.537Z,10.20
2023-05-22T17:30:13.568Z,10.27
2023-05-22T17:32:40.609Z,10.55
2023-05-22T17:35:07.842Z,9.40
2023-05-22T17:37:34.849Z,10.70
2023-05-22T17:40:01.725Z,11.20
2023-05-22T17:42:28.640Z,11.27
2023-05-22T17:44:55.488Z,11.80
2023-05-22T17:47:22.537Z,10.38
2023-05-22T17:49:49.460Z,12.15
2023-05-22T17:52:16.373Z,13.05
2023-05-22T17:54:43.212Z,12.15
2023-05-22T17:57:10.293Z,13.27
2023-05-22T17:59:39.873Z,12.95
2023-05-22T18:02:08.390Z,14.00
2023-05-22T18:04:36.282Z,12.60
2023-05-22T18:07:03.915Z,13.77
2023-05-22T18:09:30.778Z,14.65
2023-05-22T18:12:01.252Z,15.10
2023-05-22T18:14:28.203Z,14.82
2023-05-22T18:16:55.115Z,16.25
2023-05-22T18:19:22.066Z,15.48
2023-05-22T18:21:49.269Z,15.15
2023-05-22T18:24:16.212Z,16.08
2023-05-22T18:26:43.054Z,15.70
2023-05-22T18:29:10.577Z,15.98
2023-05-22T18:31:37.474Z,15.55
2023-05-22T18:34:04.483Z,16.60
2023-05-22T18:36:31.851Z,16.23
2023-05-22T18:38:58.782Z,16.48
2023-05-22T18:41:26.445Z,16.75
2023-05-22T18:43:53.571Z,18.35
2023-05-22T18:46:20.699Z,17.45
2023-05-22T18:48:47.744Z,17.17
2023-05-22T18:51:16.549Z,16.85
2023-05-22T18:53:43.481Z,16.20
2023-05-22T18:56:10.316Z,14.70
2023-05-22T18:58:41.428Z,16.63
2023-05-22T19:01:08.632Z,16.15
2023-05-22T19:03:35.784Z,15.60
2023-05-22T19:06:02.727Z,16.38
2023-05-22T19:08:31.103Z,16.23
2023-05-22T19:11:01.397Z,14.77
2023-05-22T19:13:29.468Z,15.32
2023-05-22T19:15:57.306Z,16.15
2023-05-22T19:18:24.712Z,16.25
2023-05-22T19:20:51.663Z,17.40
2023-05-22T19:23:18.773Z,16.10
2023-05-22T19:25:45.659Z,15.35
2023-05-22T19:28:12.663Z,15.20
2023-05-22T19:30:40.194Z,15.07
2023-05-22T19:33:09.067Z,15.77
2023-05-22T19:35:36.259Z,15.95
2023-05-22T19:38:03.519Z,14.70
2023-05-22T19:40:30.446Z,13.88
2023-05-22T19:42:57.928Z,13.65
2023-05-22T19:45:27.554Z,13.30
2023-05-22T19:47:55.675Z,13.50
2023-05-22T19:50:22.646Z,13.63
2023-05-22T19:52:49.529Z,12.18
2023-05-22T19:55:16.475Z,13.07
2023-05-22T19:57:44.863Z,13.38
2023-05-22T20:00:12.536Z,12.10
2023-05-22T20:02:42.369Z,12.80
2023-05-22T20:05:12.873Z,13.73
2023-05-22T20:07:40.359Z,12.55
2023-05-22T20:10:09.363Z,12.85
2023-05-22T20:12:37.327Z,15.82
2023-05-22T20:15:06.797Z,14.85
2023-05-22T20:17:34.295Z,14.95
2023-05-22T20:20:01.333Z,14.30
2023-05-22T20:22:28.459Z,14.73
2023-05-22T20:24:55.821Z,15.75
2023-05-22T20:27:22.914Z,14.38
2023-05-22T20:29:50.268Z,13.35
2023-05-22T20:32:17.416Z,14.85
2023-05-22T20:34:45.493Z,13.13
2023-05-22T20:37:13.667Z,12.93
2023-05-22T20:39:44.285Z,13.32
2023-05-22T20:42:13.049Z,14.57
2023-05-22T20:44:41.253Z,14.63
2023-05-22T20:47:09.491Z,12.95
2023-05-22T20:49:36.398Z,14.02
2023-05-22T20:52:04.756Z,12.15
2023-05-22T20:54:34.260Z,13.90
2023-05-22T20:57:02.217Z,12.63
2023-05-22T20:59:29.322Z,13.13
2023-05-22T21:01:57.062Z,12.65
2023-05-22T21:04:24.407Z,13.73
2023-05-22T21:06:51.524Z,13.85
2023-05-22T21:09:18.455Z,13.85
2023-05-22T21:11:45.624Z,14.50
2023-05-22T21:14:12.648Z,14.15
2023-05-22T21:16:40.267Z,14.27
2023-05-22T21:19:07.609Z,15.20
2023-05-22T21:21:36.291Z,14.93
2023-05-22T21:24:03.392Z,14.10
2023-05-22T21:26:30.385Z,15.05
2023-05-22T21:28:57.357Z,16.23
2023-05-22T21:31:24.398Z,16.45
2023-05-22T21:33:51.400Z,16.95
2023-05-22T21:36:18.352Z,17.48
2023-05-22T21:38:45.890Z,16.35
2023-05-22T21:41:13.286Z,17.67
2023-05-22T21:43:40.299Z,18.58
2023-05-22T21:46:07.313Z,18.05
2023-05-22T21:48:34.245Z,16.17
2023-05-22T21:51:01.183Z,18.38
2023-05-22T21:53:28.001Z,19.13
2023-05-22T21:55:54.874Z,21.27
2023-05-22T21:58:21.844Z,21.92
2023-05-22T22:00:48.770Z,19.55
2023-05-22T22:03:15.869Z,20.58
2023-05-22T22:05:42.821Z,21.20
2023-05-22T22:08:09.657Z,20.42
2023-05-22T22:10:36.988Z,20.00
2023-05-22T22:13:03.920Z,19.95
2023-05-22T22:15:32.088Z,22.20
2023-05-22T22:18:02.505Z,21.63
2023-05-22T22:20:44.464Z,20.50
2023-05-22T22:23:12.641Z,21.92
2023-05-22T22:25:39.684Z,21.10
2023-05-22T22:28:07.481Z,20.45
2023-05-22T22:30:35.313Z,19.85
2023-05-22T22:33:02.627Z,19.40
2023-05-22T22:35:29.784Z,20.77
2023-05-22T22:37:57.092Z,20.88
2023-05-22T22:40:25.997Z,21.20
2023-05-22T22:42:53.640Z,21.83
2023-05-22T22:45:20.693Z,27.95
2023-05-22T22:47:48.234Z,26.13
2023-05-22T22:50:15.116Z,18.75
2023-05-22T22:52:45.693Z,17.88
2023-05-22T22:55:13.492Z,17.55
2023-05-22T22:57:46.996Z,16.55
2023-05-22T23:00:14.526Z,18.27
2023-05-22T23:02:41.463Z,17.02
2023-05-22T23:05:09.013Z,14.85
2023-05-22T23:07:36.193Z,15.50
2023-05-22T23:10:03.223Z,15.18
2023-05-22T23:12:32.871Z,17.05
2023-05-22T23:14:59.880Z,16.17
2023-05-22T23:17:26.752Z,14.85
2023-05-22T23:19:53.922Z,15.38
2023-05-22T23:22:20.754Z,14.98
2023-05-22T23:24:47.684Z,14.95
2023-05-22T23:27:14.924Z,16.15
2023-05-22T23:29:41.842Z,15.57
2023-05-22T23:32:08.708Z,15.23
2023-05-22T23:34:35.880Z,15.45
2023-05-22T23:37:02.742Z,16.13
2023-05-22T23:39:29.623Z,17.05
2023-05-22T23:41:56.515Z,17.52
2023-05-22T23:44:23.464Z,17.20
2023-05-22T23:46:50.710Z,16.67
2023-05-22T23:49:17.659Z,16.55
2023-05-22T23:51:44.490Z,17.65
2023-05-22T23:54:13.134Z,16.17
2023-05-22T23:56:40.028Z,16.38
2023-05-22T23:59:06.926Z,14.98
